Time;durP1;ratioP1;P1;durP2;ratioP2;P2;SDS_P1;SDS_P2;PMS_P1;PMS_P2;Temp;Humidity;BMP_temperature;BMP_pressure;BME280_temperature;BME280_humidity;BME280_pressure;Samples;Min_cycle;Max_cycle;Signal;HPM_P1;HPM_P2
2023/05/10 00:00:38;;;;;;;14.93;13.53;;;15.70;99.90;;;;;;5076052;28;21007;-55
2023/05/10 00:03:05;;;;;;;15.33;13.80;;;15.70;99.90;;;;;;5076262;28;20456;-56
2023/05/10 00:05:32;;;;;;;12.23;11.07;;;15.70;99.90;;;;;;5076114;28;20521;-55
2023/05/10 00:07:58;;;;;;;12.67;11.47;;;15.70;99.90;;;;;;5075874;28;20492;-56
2023/05/10 00:10:26;;;;;;;12.73;11.53;;;15.70;99.90;;;;;;5075779;28;20449;-56
2023/05/10 00:12:53;;;;;;;12.30;11.10;;;15.60;99.90;;;;;;5075988;28;20799;-56
2023/05/10 00:15:20;;;;;;;12.30;11.13;;;15.60;99.90;;;;;;5075867;28;20476;-56
2023/05/10 00:17:46;;;;;;;11.90;10.80;;;15.50;99.90;;;;;;5075557;28;20931;-56
2023/05/10 00:20:13;;;;;;;12.67;11.47;;;15.50;99.90;;;;;;5075950;28;20449;-56
2023/05/10 00:22:40;;;;;;;11.90;10.80;;;15.40;99.90;;;;;;5075662;28;20460;-55
2023/05/10 00:25:08;;;;;;;11.97;10.77;;;15.40;99.90;;;;;;5075783;28;20469;-56
2023/05/10 00:27:36;;;;;;;10.97;9.50;;;15.30;99.90;;;;;;5075700;28;20472;-56
2023/05/10 00:30:03;;;;;;;12.00;10.90;;;15.30;99.90;;;;;;5075792;28;20459;-55
2023/05/10 00:32:30;;;;;;;11.03;9.97;;;15.40;99.90;;;;;;5075371;28;20445;-55
2023/05/10 00:34:57;;;;;;;12.10;10.57;;;15.40;99.90;;;;;;5075675;28;20471;-56
2023/05/10 00:37:24;;;;;;;10.83;9.83;;;15.40;99.90;;;;;;5075631;28;20448;-56
2023/05/10 00:39:51;;;;;;;10.13;9.13;;;15.40;99.90;;;;;;5075557;28;20452;-55
2023/05/10 00:42:17;;;;;;;9.30;8.37;;;15.40;99.90;;;;;;5075196;28;20944;-56
2023/05/10 00:44:46;;;;;;;8.93;8.13;;;15.40;99.90;;;;;;5075397;28;20480;-55
2023/05/10 00:47:13;;;;;;;9.67;8.77;;;15.40;99.90;;;;;;5075332;28;20847;-55
2023/05/10 00:49:41;;;;;;;9.83;8.60;;;15.50;99.90;;;;;;5075522;28;20822;-55
2023/05/10 00:52:08;;;;;;;9.10;8.20;;;15.40;99.90;;;;;;5075397;28;20448;-55
2023/05/10 00:54:35;;;;;;;9.13;8.23;;;15.40;99.90;;;;;;5076322;28;20469;-56
2023/05/10 00:57:03;;;;;;;7.60;6.90;;;15.50;99.90;;;;;;5076958;28;20452;-56
2023/05/10 00:59:30;;;;;;;7.07;6.37;;;15.50;99.90;;;;;;5076221;28;20476;-56
2023/05/10 01:01:58;;;;;;;6.73;6.13;;;15.50;99.90;;;;;;5075348;28;20487;-55
2023/05/10 01:04:26;;;;;;;6.40;5.80;;;15.40;99.90;;;;;;5075216;28;20514;-56
2023/05/10 01:06:53;;;;;;;6.70;5.03;;;15.50;99.90;;;;;;5075171;28;20487;-56
2023/05/10 01:09:21;;;;;;;6.87;6.27;;;15.40;99.90;;;;;;5074837;28;20464;-55
2023/05/10 01:11:48;;;;;;;7.33;5.20;;;15.40;99.90;;;;;;5074995;28;20444;-55
2023/05/10 01:14:18;;;;;;;6.53;5.40;;;15.40;99.90;;;;;;5074847;28;20469;-56
2023/05/10 01:16:47;;;;;;;5.70;5.00;;;15.40;99.90;;;;;;5074961;28;20441;-55
2023/05/10 01:19:19;;;;;;;5.70;5.20;;;15.40;99.90;;;;;;5074833;28;20494;-55
2023/05/10 01:21:59;;;;;;;5.10;4.63;;;15.50;99.90;;;;;;5074829;28;20437;-55
2023/05/10 01:24:50;;;;;;;4.47;3.87;;;15.50;99.90;;;;;;5074716;28;20504;-55
2023/05/10 01:27:33;;;;;;;4.47;3.27;;;15.50;99.90;;;;;;5074411;28;20993;-55
2023/05/10 01:30:19;;;;;;;4.37;3.67;;;15.50;99.90;;;;;;5074637;28;20440;-56
2023/05/10 01:32:53;;;;;;;3.23;3.00;;;15.50;99.90;;;;;;5074259;28;20504;-56
2023/05/10 01:35:27;;;;;;;5.73;2.90;;;15.50;99.90;;;;;;5073738;28;20970;-55
2023/05/10 01:38:02;;;;;;;3.33;3.03;;;15.50;99.90;;;;;;5074509;28;20475;-55
2023/05/10 01:40:34;;;;;;;3.87;3.57;;;15.50;99.90;;;;;;5074510;28;20439;-58
2023/05/10 01:43:03;;;;;;;4.70;3.53;;;15.50;99.90;;;;;;5074134;28;20907;-56
2023/05/10 01:45:35;;;;;;;4.87;4.07;;;15.50;99.90;;;;;;5074671;28;20465;-55
2023/05/10 01:48:07;;;;;;;4.13;3.73;;;15.60;99.90;;;;;;5073952;28;20978;-55
2023/05/10 01:50:36;;;;;;;5.60;4.27;;;15.60;99.90;;;;;;5074665;28;20429;-55
2023/05/10 01:53:05;;;;;;;4.97;4.37;;;15.60;99.90;;;;;;5074074;28;20448;-55
2023/05/10 01:55:36;;;;;;;5.80;5.30;;;15.60;99.90;;;;;;5074097;28;20874;-55
2023/05/10 01:58:06;;;;;;;8.53;7.17;;;15.60;99.90;;;;;;5074061;28;20425;-55
2023/05/10 02:00:33;;;;;;;8.90;7.90;;;15.60;99.90;;;;;;5073768;28;20911;-55
2023/05/10 02:03:04;;;;;;;10.80;8.80;;;15.60;99.90;;;;;;5073680;28;20448;-56
2023/05/10 02:05:34;;;;;;;10.50;9.40;;;15.60;99.90;;;;;;5073923;28;20483;-55
2023/05/10 02:08:02;;;;;;;8.70;7.93;;;15.60;99.90;;;;;;5073560;28;20516;-55
2023/05/10 02:10:29;;;;;;;10.57;9.47;;;15.60;99.90;;;;;;5073427;28;20444;-56
2023/05/10 02:12:59;;;;;;;9.63;8.70;;;15.60;99.90;;;;;;5073701;28;20445;-55
2023/05/10 02:15:27;;;;;;;10.30;9.30;;;15.70;99.90;;;;;;5073727;28;20471;-55
2023/05/10 02:17:56;;;;;;;11.00;10.00;;;15.70;99.90;;;;;;5070215;28;20446;-56
2023/05/10 02:20:24;;;;;;;9.80;8.90;;;15.70;99.90;;;;;;5053765;28;20850;-56
2023/05/10 02:22:55;;;;;;;10.97;9.73;;;15.70;99.90;;;;;;5053234;28;20454;-55
2023/05/10 02:25:24;;;;;;;9.60;8.60;;;15.70;99.90;;;;;;5053354;28;20468;-56
2023/05/10 02:27:52;;;;;;;9.17;8.27;;;15.70;99.90;;;;;;5058246;28;20480;-55
2023/05/10 02:30:20;;;;;;;11.60;8.70;;;15.70;99.90;;;;;;5053996;28;20450;-55
2023/05/10 02:32:48;;;;;;;11.20;8.90;;;15.70;99.90;;;;;;5053210;28;20823;-55
2023/05/10 02:35:16;;;;;;;10.23;9.23;;;15.70;99.90;;;;;;5056535;28;20477;-55
2023/05/10 02:37:44;;;;;;;9.57;8.67;;;15.70;99.90;;;;;;5065389;28;20494;-56
2023/05/10 02:40:13;;;;;;;10.80;8.33;;;15.70;99.90;;;;;;5073987;28;20837;-55
2023/05/10 02:42:44;;;;;;;9.93;8.97;;;15.70;99.90;;;;;;5073449;28;20452;-55
2023/05/10 02:45:14;;;;;;;9.53;8.53;;;15.70;99.90;;;;;;5073183;28;20993;-55
2023/05/10 02:47:41;;;;;;;9.70;8.50;;;15.70;99.90;;;;;;5072873;28;20982;-55
2023/05/10 02:50:09;;;;;;;11.00;9.33;;;15.70;99.90;;;;;;5073433;28;20449;-55
2023/05/10 02:52:41;;;;;;;9.70;8.73;;;15.70;99.90;;;;;;5073249;28;20449;-55
2023/05/10 02:55:13;;;;;;;10.80;9.67;;;15.70;99.90;;;;;;5073311;28;20496;-55
2023/05/10 02:57:43;;;;;;;10.27;9.30;;;15.70;99.90;;;;;;5073270;28;20853;-55
2023/05/10 03:00:11;;;;;;;9.90;8.90;;;15.70;99.90;;;;;;5073415;28;20429;-55
2023/05/10 03:02:38;;;;;;;10.37;9.30;;;15.70;99.90;;;;;;5073164;28;20506;-55
2023/05/10 03:05:05;;;;;;;11.33;10.10;;;15.70;99.90;;;;;;5073150;28;20464;-55
2023/05/10 03:07:33;;;;;;;12.10;10.80;;;15.70;99.90;;;;;;5073041;28;20484;-57
2023/05/10 03:10:00;;;;;;;11.80;9.90;;;15.70;99.90;;;;;;5073170;28;20444;-56
2023/05/10 03:12:42;;;;;;;11.90;10.60;;;15.70;99.90;;;;;;5073192;28;20507;-56
2023/05/10 03:15:14;;;;;;;14.70;11.40;;;15.80;99.90;;;;;;5073225;28;20465;-56
2023/05/10 03:17:48;;;;;;;13.43;11.70;;;15.70;99.90;;;;;;5073240;28;20437;-56
2023/05/10 03:20:23;;;;;;;15.30;12.43;;;15.80;99.90;;;;;;5073554;28;20807;-56
2023/05/10 03:22:54;;;;;;;15.60;12.87;;;15.80;99.90;;;;;;5074077;28;20470;-55
2023/05/10 03:25:22;;;;;;;16.93;14.23;;;15.80;99.90;;;;;;5073730;28;20971;-56
2023/05/10 03:27:51;;;;;;;16.47;14.67;;;15.70;99.90;;;;;;5073019;28;20483;-55
2023/05/10 03:30:18;;;;;;;19.60;16.83;;;15.70;99.90;;;;;;5073127;28;20445;-56
2023/05/10 03:32:45;;;;;;;22.43;17.10;;;15.70;99.90;;;;;;5072972;28;20440;-56
2023/05/10 03:35:14;;;;;;;23.83;18.23;;;15.60;99.90;;;;;;5073600;28;20821;-56
2023/05/10 03:37:40;;;;;;;20.33;16.77;;;15.60;99.90;;;;;;5074437;28;20485;-56
2023/05/10 03:40:08;;;;;;;21.00;17.10;;;15.60;99.90;;;;;;5073940;28;20444;-55
2023/05/10 03:42:35;;;;;;;22.23;18.47;;;15.60;99.90;;;;;;5072929;28;20444;-55
2023/05/10 03:45:04;;;;;;;22.40;17.43;;;15.60;99.90;;;;;;5072998;28;20469;-55
2023/05/10 03:47:30;;;;;;;20.50;18.30;;;15.50;99.90;;;;;;5072805;28;20487;-55
2023/05/10 03:49:57;;;;;;;22.10;17.10;;;15.60;99.90;;;;;;5072852;28;20449;-56
2023/05/10 03:52:24;;;;;;;21.20;17.20;;;15.60;99.90;;;;;;5073023;28;20454;-55
2023/05/10 03:54:50;;;;;;;24.07;18.67;;;15.50;99.90;;;;;;5072645;28;20475;-55
2023/05/10 03:57:17;;;;;;;22.13;19.73;;;15.50;99.90;;;;;;5074278;28;20447;-56
2023/05/10 03:59:44;;;;;;;22.70;19.37;;;15.50;99.90;;;;;;5076398;28;20456;-55
2023/05/10 04:02:12;;;;;;;22.30;18.60;;;15.50;99.90;;;;;;5077800;28;20441;-56
2023/05/10 04:04:38;;;;;;;26.07;19.13;;;15.50;99.90;;;;;;5076917;28;20471;-56
2023/05/10 04:07:05;;;;;;;20.70;17.97;;;15.50;99.90;;;;;;5076460;28;20803;-55
2023/05/10 04:09:32;;;;;;;20.60;17.70;;;15.50;99.90;;;;;;5076291;28;20457;-55
2023/05/10 04:12:00;;;;;;;19.20;16.70;;;15.50;99.90;;;;;;5076230;28;20814;-55
2023/05/10 04:14:27;;;;;;;18.93;16.47;;;15.50;99.90;;;;;;5076187;28;20468;-56
2023/05/10 04:16:55;;;;;;;17.23;15.43;;;15.50;99.90;;;;;;5075922;28;20825;-55
2023/05/10 04:19:23;;;;;;;20.03;15.97;;;15.40;99.90;;;;;;5076080;28;20480;-56
2023/05/10 04:21:49;;;;;;;22.60;14.70;;;15.40;99.90;;;;;;5075722;28;20950;-55
2023/05/10 04:24:16;;;;;;;17.10;14.40;;;15.30;99.90;;;;;;5075628;28;20998;-56
2023/05/10 04:26:43;;;;;;;15.80;14.13;;;15.30;99.90;;;;;;5075868;28;20436;-55
2023/05/10 04:29:09;;;;;;;16.00;14.33;;;15.20;99.90;;;;;;5075879;28;20491;-55
2023/05/10 04:31:37;;;;;;;15.37;13.73;;;15.10;99.90;;;;;;5075735;28;20464;-56
2023/05/10 04:34:03;;;;;;;16.40;13.37;;;15.00;99.90;;;;;;5075677;28;20492;-55
2023/05/10 04:36:32;;;;;;;16.20;12.50;;;15.10;99.90;;;;;;5075843;28;20448;-55
2023/05/10 04:38:59;;;;;;;13.57;12.13;;;15.10;99.90;;;;;;5075660;28;20490;-55
2023/05/10 04:41:25;;;;;;;15.20;11.53;;;15.10;99.90;;;;;;5075657;28;20452;-56
2023/05/10 04:43:52;;;;;;;14.57;12.50;;;15.10;99.90;;;;;;5075553;28;20798;-56
2023/05/10 04:46:19;;;;;;;15.73;12.73;;;15.00;99.90;;;;;;5075602;28;20523;-56
2023/05/10 04:48:45;;;;;;;14.17;12.03;;;15.00;99.90;;;;;;5075509;28;20481;-55
2023/05/10 04:51:12;;;;;;;15.20;13.60;;;15.00;99.90;;;;;;5075083;28;20974;-56
2023/05/10 04:53:40;;;;;;;17.73;14.00;;;15.00;99.90;;;;;;5075358;28;20449;-56
2023/05/10 04:56:07;;;;;;;14.77;13.20;;;15.10;99.90;;;;;;5075348;28;20459;-55
2023/05/10 04:58:34;;;;;;;19.83;13.10;;;15.10;99.90;;;;;;5075435;28;20441;-56
2023/05/10 05:01:06;;;;;;;14.00;12.50;;;15.20;99.90;;;;;;5075023;28;20812;-55
2023/05/10 05:03:33;;;;;;;19.03;13.37;;;15.20;99.90;;;;;;5075778;28;20482;-55
2023/05/10 05:06:00;;;;;;;22.60;15.00;;;15.20;99.90;;;;;;5074844;28;20982;-55
2023/05/10 05:08:26;;;;;;;14.17;12.27;;;15.20;99.90;;;;;;5073574;28;21001;-55
2023/05/10 05:10:55;;;;;;;14.70;13.03;;;15.30;99.90;;;;;;5074801;28;20938;-56
2023/05/10 05:13:22;;;;;;;13.20;11.77;;;15.30;99.90;;;;;;5075071;28;20447;-56
2023/05/10 05:15:49;;;;;;;14.63;11.93;;;15.40;99.90;;;;;;5074578;28;20891;-56
2023/05/10 05:18:15;;;;;;;13.13;11.83;;;15.30;99.90;;;;;;5074842;28;20566;-55
2023/05/10 05:20:42;;;;;;;13.00;11.33;;;15.30;99.90;;;;;;5074785;28;20440;-56
2023/05/10 05:23:09;;;;;;;17.07;12.73;;;15.40;99.90;;;;;;5074814;28;20448;-56
2023/05/10 05:25:35;;;;;;;18.10;14.03;;;15.40;99.90;;;;;;5074351;28;20982;-56
2023/05/10 05:28:03;;;;;;;19.17;13.97;;;15.30;99.90;;;;;;5074667;28;20484;-56
2023/05/10 05:30:30;;;;;;;16.73;12.57;;;15.20;99.90;;;;;;5074595;28;20452;-56
2023/05/10 05:32:57;;;;;;;19.53;14.10;;;15.20;99.90;;;;;;5074401;28;20440;-55
2023/05/10 05:35:23;;;;;;;18.80;14.30;;;15.20;99.90;;;;;;5074347;28;20812;-55
2023/05/10 05:37:50;;;;;;;18.97;15.53;;;15.10;99.90;;;;;;5074441;28;20487;-55
2023/05/10 05:40:17;;;;;;;18.37;15.23;;;15.10;99.90;;;;;;5074376;28;20447;-55
2023/05/10 05:42:43;;;;;;;19.63;15.47;;;15.10;99.90;;;;;;5074285;28;20850;-56
2023/05/10 05:45:13;;;;;;;23.27;15.40;;;15.10;99.90;;;;;;5074212;28;20868;-55
2023/05/10 05:47:40;;;;;;;22.73;15.97;;;15.00;99.90;;;;;;5073874;28;20932;-55
2023/05/10 05:50:07;;;;;;;21.20;16.13;;;15.00;99.90;;;;;;5074210;28;20448;-55
2023/05/10 05:52:34;;;;;;;22.30;17.13;;;15.10;99.90;;;;;;5074163;28;20448;-55
2023/05/10 05:55:01;;;;;;;19.33;14.97;;;15.10;99.90;;;;;;5074071;28;20469;-55
2023/05/10 05:57:27;;;;;;;21.73;16.80;;;15.10;99.90;;;;;;5074087;28;20455;-56
2023/05/10 05:59:54;;;;;;;21.47;16.53;;;15.00;99.90;;;;;;5074106;28;20855;-56
2023/05/10 06:02:22;;;;;;;20.30;15.57;;;15.10;99.90;;;;;;5073980;28;20457;-55
2023/05/10 06:04:49;;;;;;;22.97;16.30;;;15.10;99.90;;;;;;5073912;28;20464;-56
2023/05/10 06:07:15;;;;;;;18.30;14.37;;;15.10;99.90;;;;;;5073900;28;20456;-55
2023/05/10 06:09:42;;;;;;;16.90;14.67;;;15.10;99.90;;;;;;5073406;28;20484;-55
2023/05/10 06:12:09;;;;;;;22.33;15.30;;;15.10;99.90;;;;;;5073833;28;20448;-56
2023/05/10 06:14:35;;;;;;;18.80;14.63;;;15.20;99.90;;;;;;5073811;28;20464;-56
2023/05/10 06:17:04;;;;;;;19.77;13.90;;;15.20;99.90;;;;;;5073813;28;20449;-56
2023/05/10 06:19:32;;;;;;;28.70;14.80;;;15.30;99.90;;;;;;5073567;28;20460;-55
2023/05/10 06:21:59;;;;;;;15.33;13.60;;;15.40;99.90;;;;;;5073705;28;20448;-56
2023/05/10 06:24:26;;;;;;;17.73;13.67;;;15.50;99.90;;;;;;5073582;28;20465;-56
2023/05/10 06:26:53;;;;;;;20.13;14.60;;;15.50;99.90;;;;;;5073704;28;20803;-56
2023/05/10 06:29:20;;;;;;;19.43;13.83;;;15.50;99.90;;;;;;5073621;28;20482;-56
2023/05/10 06:31:47;;;;;;;24.37;14.70;;;15.60;99.90;;;;;;5073621;28;20437;-56
2023/05/10 06:34:14;;;;;;;22.33;16.00;;;15.60;99.90;;;;;;5073760;28;20502;-56
2023/05/10 06:36:42;;;;;;;23.17;16.90;;;15.60;99.90;;;;;;5073540;28;20457;-56
2023/05/10 06:39:09;;;;;;;22.17;15.97;;;15.60;99.90;;;;;;5073553;28;20437;-56
2023/05/10 06:41:36;;;;;;;20.87;15.30;;;15.60;99.90;;;;;;5073118;28;20859;-57
2023/05/10 06:44:03;;;;;;;27.93;17.07;;;15.60;99.90;;;;;;5073346;28;20500;-57
2023/05/10 06:46:30;;;;;;;22.63;15.90;;;15.70;99.90;;;;;;5074162;28;20452;-56
2023/05/10 06:48:57;;;;;;;21.90;15.07;;;15.70;99.90;;;;;;5073260;28;20503;-57
2023/05/10 06:51:23;;;;;;;19.00;16.53;;;15.80;99.90;;;;;;5073076;28;20800;-57
2023/05/10 06:53:51;;;;;;;23.87;17.90;;;15.80;99.90;;;;;;5073308;28;20454;-57
2023/05/10 06:56:18;;;;;;;22.20;16.17;;;15.80;99.90;;;;;;5073269;28;20459;-57
2023/05/10 06:58:45;;;;;;;22.80;16.23;;;15.90;99.90;;;;;;5073257;28;20469;-56
2023/05/10 07:01:12;;;;;;;21.60;17.60;;;15.80;99.90;;;;;;5072893;28;20941;-56
2023/05/10 07:03:38;;;;;;;22.07;15.87;;;15.90;99.90;;;;;;5073141;28;20444;-58
2023/05/10 07:06:07;;;;;;;22.77;16.23;;;15.90;99.90;;;;;;5073295;28;20461;-57
2023/05/10 07:08:34;;;;;;;24.27;17.70;;;16.00;99.90;;;;;;5064011;28;20485;-57
2023/05/10 07:11:03;;;;;;;20.20;14.70;;;16.00;99.90;;;;;;5070402;28;20447;-57
2023/05/10 07:13:31;;;;;;;23.70;16.97;;;16.00;99.90;;;;;;5057405;28;20450;-57
2023/05/10 07:15:58;;;;;;;23.13;19.70;;;16.00;99.90;;;;;;5053384;28;20469;-56
2023/05/10 07:18:24;;;;;;;26.10;17.33;;;15.90;99.90;;;;;;5053327;28;20441;-56
2023/05/10 07:20:51;;;;;;;23.47;18.10;;;15.80;99.90;;;;;;5053078;28;20445;-57
2023/05/10 07:23:18;;;;;;;23.67;18.50;;;15.80;99.90;;;;;;5053096;28;20441;-56
2023/05/10 07:25:46;;;;;;;23.30;18.70;;;15.80;99.90;;;;;;5052953;28;20556;-56
2023/05/10 07:28:14;;;;;;;26.33;18.50;;;15.70;99.90;;;;;;5052874;28;20454;-57
2023/05/10 07:30:41;;;;;;;28.67;20.73;;;15.80;99.90;;;;;;5053013;28;20448;-56
2023/05/10 07:33:09;;;;;;;29.80;21.10;;;15.80;99.90;;;;;;5055875;28;20481;-56
2023/05/10 07:35:36;;;;;;;30.00;22.50;;;15.80;99.90;;;;;;5069302;28;20504;-57
2023/05/10 07:38:03;;;;;;;34.23;23.73;;;15.90;99.90;;;;;;5076897;28;20866;-57
2023/05/10 07:40:30;;;;;;;34.70;23.63;;;16.10;99.90;;;;;;5076430;28;20961;-57
2023/05/10 07:42:57;;;;;;;34.87;24.30;;;16.20;99.90;;;;;;5076749;28;20455;-56
2023/05/10 07:45:25;;;;;;;34.70;25.03;;;16.40;99.90;;;;;;5076626;28;20517;-57
2023/05/10 07:47:51;;;;;;;38.20;25.10;;;16.60;99.90;;;;;;5076656;28;20444;-57
2023/05/10 07:50:18;;;;;;;38.23;26.00;;;16.90;99.90;;;;;;5076513;28;20488;-57
2023/05/10 07:52:45;;;;;;;39.00;24.83;;;17.20;99.90;;;;;;5076235;28;21007;-57
2023/05/10 07:55:12;;;;;;;37.17;25.47;;;17.30;99.90;;;;;;5076065;28;20513;-56
2023/05/10 07:57:39;;;;;;;34.40;24.73;;;17.50;99.90;;;;;;5059508;28;20453;-56
2023/05/10 08:00:07;;;;;;;31.63;22.30;;;17.60;99.90;;;;;;5056141;28;20449;-56
2023/05/10 08:02:36;;;;;;;28.00;22.63;;;17.70;99.90;;;;;;5056403;28;20879;-56
2023/05/10 08:05:05;;;;;;;26.60;21.17;;;17.80;99.70;;;;;;5056290;28;20465;-57
2023/05/10 08:07:31;;;;;;;27.37;21.13;;;17.80;99.70;;;;;;5056242;28;20453;-57
2023/05/10 08:09:58;;;;;;;26.33;19.80;;;17.80;99.70;;;;;;5055811;28;20858;-57
2023/05/10 08:12:25;;;;;;;25.47;19.10;;;17.90;99.30;;;;;;5055881;28;20835;-57
2023/05/10 08:14:51;;;;;;;29.83;19.00;;;18.00;99.20;;;;;;5056057;28;20469;-57
2023/05/10 08:17:18;;;;;;;25.00;20.07;;;18.10;98.90;;;;;;5056646;28;20802;-57
2023/05/10 08:19:46;;;;;;;25.93;20.10;;;18.00;98.10;;;;;;5056125;28;20544;-57
2023/05/10 08:22:13;;;;;;;25.60;21.77;;;18.00;97.80;;;;;;5055993;28;20449;-56
2023/05/10 08:24:41;;;;;;;32.83;19.33;;;18.00;98.20;;;;;;5055868;28;20542;-56
2023/05/10 08:27:09;;;;;;;25.63;19.83;;;18.00;98.40;;;;;;5055837;28;20445;-57
2023/05/10 08:29:35;;;;;;;29.20;21.63;;;18.00;98.50;;;;;;5055752;28;20484;-57
2023/05/10 08:32:02;;;;;;;28.33;20.03;;;18.00;98.30;;;;;;5055721;28;20476;-57
2023/05/10 08:34:30;;;;;;;24.77;20.40;;;18.00;98.00;;;;;;5055667;28;20492;-57
2023/05/10 08:36:58;;;;;;;22.93;19.50;;;18.00;98.30;;;;;;5055666;28;20453;-57
2023/05/10 08:39:25;;;;;;;22.67;17.67;;;18.00;98.60;;;;;;5055641;28;20453;-57
2023/05/10 08:41:54;;;;;;;22.40;18.10;;;17.90;98.20;;;;;;5055552;28;20452;-57
2023/05/10 08:44:21;;;;;;;21.87;16.93;;;17.70;97.40;;;;;;5055285;28;20469;-56
2023/05/10 08:46:53;;;;;;;24.53;18.70;;;17.50;98.00;;;;;;5055494;28;20442;-56
2023/05/10 08:49:22;;;;;;;22.47;18.53;;;17.50;98.40;;;;;;5055361;28;20493;-56
2023/05/10 08:51:55;;;;;;;25.00;20.10;;;17.40;98.90;;;;;;5067723;28;20449;-56
2023/05/10 08:54:24;;;;;;;27.33;21.10;;;17.30;98.80;;;;;;5075745;28;20530;-56
2023/05/10 08:56:51;;;;;;;24.43;19.87;;;17.30;99.10;;;;;;5075266;28;20495;-56
2023/05/10 08:59:17;;;;;;;22.27;19.30;;;17.20;99.10;;;;;;5075270;28;20441;-56
2023/05/10 09:01:45;;;;;;;22.40;18.50;;;17.20;99.00;;;;;;5075249;28;20876;-56
2023/05/10 09:04:12;;;;;;;19.70;16.37;;;17.20;98.70;;;;;;5075146;28;20465;-56
2023/05/10 09:06:39;;;;;;;20.00;17.70;;;17.20;98.40;;;;;;5075238;28;20535;-56
2023/05/10 09:09:06;;;;;;;20.93;17.60;;;17.20;98.90;;;;;;5074656;28;20484;-56
2023/05/10 09:11:34;;;;;;;21.03;16.90;;;17.20;98.80;;;;;;5075005;28;20459;-56
2023/05/10 09:14:02;;;;;;;24.00;17.73;;;17.30;98.70;;;;;;5074878;28;20479;-56
2023/05/10 09:16:29;;;;;;;24.77;18.20;;;17.40;98.40;;;;;;5075688;28;20452;-56
2023/05/10 09:18:55;;;;;;;22.40;16.97;;;17.50;98.40;;;;;;5075464;28;20451;-56
2023/05/10 09:21:22;;;;;;;19.33;16.53;;;17.60;97.90;;;;;;5074905;28;20457;-56
2023/05/10 09:23:49;;;;;;;20.43;17.10;;;17.70;97.90;;;;;;5074703;28;20453;-57
2023/05/10 09:26:17;;;;;;;19.30;16.80;;;17.80;98.30;;;;;;5074416;28;20953;-56
2023/05/10 09:28:56;;;;;;;18.80;16.80;;;18.00;97.60;;;;;;5074562;28;20449;-56
2023/05/10 09:31:24;;;;;;;18.60;15.70;;;18.40;97.10;;;;;;5074384;28;20972;-56
2023/05/10 09:33:52;;;;;;;20.10;15.57;;;18.70;97.10;;;;;;5074561;28;20456;-56
2023/05/10 09:36:18;;;;;;;22.83;16.30;;;18.70;95.90;;;;;;5074580;28;20448;-56
2023/05/10 09:38:49;;;;;;;19.33;17.00;;;18.60;94.60;;;;;;5074242;28;20954;-56
2023/05/10 09:41:17;;;;;;;20.10;16.37;;;18.60;95.40;;;;;;5074366;28;20449;-56
2023/05/10 09:43:44;;;;;;;22.30;17.97;;;18.50;95.40;;;;;;5074371;28;20452;-56
2023/05/10 09:46:12;;;;;;;18.67;16.30;;;18.40;95.50;;;;;;5074466;28;20475;-56
2023/05/10 09:48:43;;;;;;;20.70;16.47;;;18.30;95.40;;;;;;5074351;28;20444;-56
2023/05/10 09:51:10;;;;;;;20.63;16.60;;;18.20;95.10;;;;;;5074410;28;20468;-56
2023/05/10 09:53:37;;;;;;;18.63;14.97;;;18.30;95.90;;;;;;5074753;28;20449;-56
2023/05/10 09:56:04;;;;;;;22.93;16.07;;;18.40;94.30;;;;;;5073759;28;20476;-56
2023/05/10 09:58:30;;;;;;;18.40;15.90;;;18.80;94.80;;;;;;5074079;28;20444;-56
2023/05/10 10:00:57;;;;;;;19.13;16.13;;;19.20;94.60;;;;;;5074079;28;20479;-56
2023/05/10 10:03:25;;;;;;;15.17;13.60;;;19.40;93.50;;;;;;5069592;28;20460;-56
2023/05/10 10:05:53;;;;;;;17.97;15.70;;;19.40;92.60;;;;;;5054826;28;20480;-56
2023/05/10 10:08:20;;;;;;;16.20;13.93;;;19.30;92.90;;;;;;5067942;28;20460;-57
2023/05/10 10:10:47;;;;;;;16.00;14.07;;;19.10;92.80;;;;;;5073942;28;20481;-57
2023/05/10 10:13:15;;;;;;;18.03;13.37;;;19.20;92.90;;;;;;5074811;28;20440;-56
2023/05/10 10:15:43;;;;;;;19.40;12.83;;;19.30;92.40;;;;;;5072332;28;20575;-56
2023/05/10 10:18:14;;;;;;;13.97;12.53;;;19.50;93.20;;;;;;5055430;28;20473;-57
2023/05/10 10:20:42;;;;;;;14.33;11.33;;;19.60;92.00;;;;;;5053841;28;20445;-56
2023/05/10 10:23:09;;;;;;;13.83;12.10;;;19.70;91.40;;;;;;5053753;28;20445;-56
2023/05/10 10:25:36;;;;;;;15.93;11.97;;;19.70;91.30;;;;;;5053680;28;20470;-56
2023/05/10 10:28:16;;;;;;;15.43;11.77;;;19.90;91.40;;;;;;5054996;28;20458;-56
2023/05/10 10:30:46;;;;;;;12.33;11.03;;;19.90;91.50;;;;;;5053737;28;20468;-56
2023/05/10 10:33:56;;;;;;;14.10;12.10;;;19.90;90.40;;;;;;5053736;28;20798;-56
2023/05/10 10:36:26;;;;;;;13.00;11.33;;;19.70;88.00;;;;;;4991967;28;20452;-56
2023/05/10 10:38:59;;;;;;;14.73;11.90;;;19.60;90.50;;;;;;4991964;28;21028;-56
2023/05/10 10:41:31;;;;;;;16.67;10.87;;;19.40;89.60;;;;;;5026933;28;20446;-56
2023/05/10 10:44:34;;;;;;;14.10;11.83;;;19.40;90.70;;;;;;5053325;28;20453;-56
2023/05/10 10:47:05;;;;;;;14.57;12.33;;;19.30;91.40;;;;;;5051090;28;20463;-56
2023/05/10 10:49:33;;;;;;;14.03;10.80;;;19.30;92.10;;;;;;5053330;28;20465;-56
2023/05/10 10:52:22;;;;;;;12.57;10.80;;;19.30;91.70;;;;;;5053306;28;20488;-56
2023/05/10 10:54:53;;;;;;;13.43;11.83;;;19.20;91.60;;;;;;5053343;28;20473;-55
2023/05/10 10:57:21;;;;;;;13.73;11.40;;;19.10;91.60;;;;;;5053000;28;21030;-56
2023/05/10 10:59:48;;;;;;;12.50;11.20;;;19.00;91.90;;;;;;5053145;28;20863;-56
2023/05/10 11:02:34;;;;;;;16.23;12.80;;;18.90;91.70;;;;;;5052970;28;20961;-56
2023/05/10 11:05:23;;;;;;;13.90;11.40;;;18.80;92.20;;;;;;5053068;28;20519;-56
2023/05/10 11:07:56;;;;;;;16.10;11.40;;;18.70;92.90;;;;;;5055619;28;20443;-57
2023/05/10 11:10:24;;;;;;;11.87;10.63;;;18.80;93.10;;;;;;5057310;28;20469;-56
2023/05/10 11:13:00;;;;;;;12.70;10.23;;;18.90;93.70;;;;;;5057306;28;20495;-56
2023/05/10 11:15:30;;;;;;;13.47;11.50;;;19.10;94.10;;;;;;5057717;28;20491;-56
2023/05/10 11:17:57;;;;;;;12.03;10.73;;;19.10;93.30;;;;;;5057134;28;20540;-56
2023/05/10 11:20:28;;;;;;;9.60;8.70;;;19.00;93.00;;;;;;5056797;28;20794;-56
2023/05/10 11:22:56;;;;;;;10.73;9.63;;;18.90;93.20;;;;;;5056809;28;20829;-56
2023/05/10 11:25:28;;;;;;;10.43;9.33;;;18.80;93.40;;;;;;5056999;28;20473;-56
2023/05/10 11:27:54;;;;;;;11.00;9.60;;;18.60;93.70;;;;;;5057030;28;20438;-56
2023/05/10 11:30:21;;;;;;;12.23;11.03;;;18.50;94.10;;;;;;5056785;28;20487;-56
2023/05/10 11:32:48;;;;;;;12.10;9.87;;;18.30;94.40;;;;;;5056869;28;20454;-56
2023/05/10 11:35:15;;;;;;;15.80;9.70;;;18.30;95.00;;;;;;5056952;28;20500;-56
2023/05/10 11:37:43;;;;;;;10.50;9.43;;;18.30;94.40;;;;;;5056482;28;20801;-56
2023/05/10 11:40:12;;;;;;;10.00;9.10;;;18.40;94.60;;;;;;5056610;28;20482;-57
2023/05/10 11:42:39;;;;;;;11.93;10.57;;;18.50;95.00;;;;;;5076269;28;20972;-56
2023/05/10 11:45:07;;;;;;;11.20;9.50;;;18.60;94.90;;;;;;5077254;28;20476;-56
2023/05/10 11:47:35;;;;;;;11.37;10.17;;;18.80;94.40;;;;;;5076776;28;20444;-56
2023/05/10 11:50:02;;;;;;;11.07;10.00;;;18.90;93.70;;;;;;5076462;28;20480;-56
2023/05/10 11:52:28;;;;;;;10.10;9.10;;;19.10;93.10;;;;;;5076524;28;20452;-56
2023/05/10 11:54:56;;;;;;;11.73;8.77;;;19.40;92.00;;;;;;5076380;28;20503;-56
2023/05/10 11:57:28;;;;;;;9.37;8.10;;;19.60;92.30;;;;;;5077876;28;20453;-56
2023/05/10 11:59:55;;;;;;;10.43;9.20;;;19.80;91.80;;;;;;5079518;28;20452;-56
2023/05/10 12:02:22;;;;;;;9.30;8.30;;;19.90;91.00;;;;;;5080034;28;20483;-56
2023/05/10 12:04:49;;;;;;;9.50;8.60;;;20.10;91.50;;;;;;5076255;28;20936;-56
2023/05/10 12:07:16;;;;;;;9.20;8.30;;;20.20;90.70;;;;;;5076283;28;20502;-56
2023/05/10 12:09:44;;;;;;;8.90;8.00;;;20.20;90.80;;;;;;5075683;28;20843;-56
2023/05/10 12:12:11;;;;;;;7.80;7.10;;;20.30;90.10;;;;;;5076053;28;20449;-56
2023/05/10 12:14:39;;;;;;;8.37;7.57;;;20.50;90.00;;;;;;5075901;28;20876;-56
2023/05/10 12:17:06;;;;;;;8.17;7.47;;;20.40;87.30;;;;;;5075945;28;20444;-56
2023/05/10 12:19:38;;;;;;;8.30;7.50;;;20.40;89.00;;;;;;5075704;28;20449;-56
2023/05/10 12:22:05;;;;;;;7.10;6.40;;;20.50;88.90;;;;;;5075987;28;20855;-56
2023/05/10 12:24:36;;;;;;;7.30;6.60;;;20.50;88.60;;;;;;5076009;28;20484;-56
2023/05/10 12:27:07;;;;;;;6.33;5.77;;;20.50;88.00;;;;;;5076678;28;20822;-55
2023/05/10 12:29:34;;;;;;;5.80;5.30;;;20.50;89.70;;;;;;5075817;28;20440;-55
2023/05/10 12:32:03;;;;;;;8.33;6.43;;;20.60;90.50;;;;;;5074063;28;20485;-56
2023/05/10 12:34:33;;;;;;;6.83;6.23;;;20.60;90.30;;;;;;5075385;28;20890;-56
2023/05/10 12:37:01;;;;;;;6.10;5.60;;;20.70;90.90;;;;;;5062359;28;20524;-56